sensor_id;sensor_type;location;lat;lon;timestamp;temperature;humidity
50907;DHT22;36882;27.680;85.304;2023-12-22T00:00:37;8.00;99.90
50907;DHT22;36882;27.680;85.304;2023-12-22T00:03:08;8.00;99.90
50907;DHT22;36882;27.680;85.304;2023-12-22T00:05:38;7.90;99.90
50907;DHT22;36882;27.680;85.304;2023-12-22T00:08:09;8.00;99.90
50907;DHT22;36882;27.680;85.304;2023-12-22T00:10:40;8.00;99.90
50907;DHT22;36882;27.680;85.304;2023-12-22T00:13:10;7.90;99.90
50907;DHT22;36882;27.680;85.304;2023-12-22T00:15:40;8.00;99.90
50907;DHT22;36882;27.680;85.304;2023-12-22T00:18:12;8.00;99.90
50907;DHT22;36882;27.680;85.304;2023-12-22T00:20:42;7.90;99.90
50907;DHT22;36882;27.680;85.304;2023-12-22T00:23:13;8.00;99.90
50907;DHT22;36882;27.680;85.304;2023-12-22T00:25:43;8.00;99.90
50907;DHT22;36882;27.680;85.304;2023-12-22T00:28:14;8.00;99.90
50907;DHT22;36882;27.680;85.304;2023-12-22T00:30:44;8.00;99.90
50907;DHT22;36882;27.680;85.304;2023-12-22T00:33:15;7.80;99.90
50907;DHT22;36882;27.680;85.304;2023-12-22T00:35:45;7.80;99.90
50907;DHT22;36882;27.680;85.304;2023-12-22T00:38:16;7.80;99.90
50907;DHT22;36882;27.680;85.304;2023-12-22T00:40:46;7.80;99.90
50907;DHT22;36882;27.680;85.304;2023-12-22T00:43:17;7.80;99.90
50907;DHT22;36882;27.680;85.304;2023-12-22T00:45:48;8.00;99.90
50907;DHT22;36882;27.680;85.304;2023-12-22T00:48:18;8.00;99.90
50907;DHT22;36882;27.680;85.304;2023-12-22T00:50:49;8.00;99.90
50907;DHT22;36882;27.680;85.304;2023-12-22T00:53:19;7.80;99.90
50907;DHT22;36882;27.680;85.304;2023-12-22T00:55:49;7.90;99.90
50907;DHT22;36882;27.680;85.304;2023-12-22T00:58:23;8.00;99.90
50907;DHT22;36882;27.680;85.304;2023-12-22T01:00:54;8.00;99.90
50907;DHT22;36882;27.680;85.304;2023-12-22T01:03:27;7.90;99.90
50907;DHT22;36882;27.680;85.304;2023-12-22T01:05:58;7.90;99.90
50907;DHT22;36882;27.680;85.304;2023-12-22T01:08:28;7.90;99.90
50907;DHT22;36882;27.680;85.304;2023-12-22T01:10:59;7.80;99.90
50907;DHT22;36882;27.680;85.304;2023-12-22T01:13:29;7.80;99.90
50907;DHT22;36882;27.680;85.304;2023-12-22T01:16:00;7.90;99.90
50907;DHT22;36882;27.680;85.304;2023-12-22T01:18:30;7.90;99.90
50907;DHT22;36882;27.680;85.304;2023-12-22T01:21:01;7.90;99.90
50907;DHT22;36882;27.680;85.304;2023-12-22T01:23:31;8.00;99.90
50907;DHT22;36882;27.680;85.304;2023-12-22T01:26:02;8.10;99.90
50907;DHT22;36882;27.680;85.304;2023-12-22T01:28:34;8.10;99.90
50907;DHT22;36882;27.680;85.304;2023-12-22T01:31:04;8.10;99.90
50907;DHT22;36882;27.680;85.304;2023-12-22T01:33:35;8.30;99.90
50907;DHT22;36882;27.680;85.304;2023-12-22T01:36:05;8.40;99.90
50907;DHT22;36882;27.680;85.304;2023-12-22T01:38:36;8.50;99.90
50907;DHT22;36882;27.680;85.304;2023-12-22T01:41:06;8.60;99.90
50907;DHT22;36882;27.680;85.304;2023-12-22T01:43:38;8.80;99.90
50907;DHT22;36882;27.680;85.304;2023-12-22T01:46:10;8.80;99.90
50907;DHT22;36882;27.680;85.304;2023-12-22T01:48:42;8.80;99.90
50907;DHT22;36882;27.680;85.304;2023-12-22T01:51:17;8.80;99.90
50907;DHT22;36882;27.680;85.304;2023-12-22T01:53:51;8.80;99.90
50907;DHT22;36882;27.680;85.304;2023-12-22T01:56:24;8.80;99.90
50907;DHT22;36882;27.680;85.304;2023-12-22T01:59:01;8.80;99.90
50907;DHT22;36882;27.680;85.304;2023-12-22T02:01:32;8.80;99.90
50907;DHT22;36882;27.680;85.304;2023-12-22T02:04:13;8.90;99.90
50907;DHT22;36882;27.680;85.304;2023-12-22T02:06:45;9.00;99.90
50907;DHT22;36882;27.680;85.304;2023-12-22T02:09:15;9.10;99.90
50907;DHT22;36882;27.680;85.304;2023-12-22T02:11:47;9.20;99.90
50907;DHT22;36882;27.680;85.304;2023-12-22T02:14:17;9.20;99.90
50907;DHT22;36882;27.680;85.304;2023-12-22T02:17:15;9.20;99.90
50907;DHT22;36882;27.680;85.304;2023-12-22T02:19:52;9.20;99.90
50907;DHT22;36882;27.680;85.304;2023-12-22T02:22:23;9.10;99.90
50907;DHT22;36882;27.680;85.304;2023-12-22T02:24:54;9.20;99.90
50907;DHT22;36882;27.680;85.304;2023-12-22T02:30:25;9.30;99.90
50907;DHT22;36882;27.680;85.304;2023-12-22T02:33:00;9.30;99.90
50907;DHT22;36882;27.680;85.304;2023-12-22T02:35:34;9.30;99.90
50907;DHT22;36882;27.680;85.304;2023-12-22T02:38:06;9.30;99.90
50907;DHT22;36882;27.680;85.304;2023-12-22T02:40:47;9.40;99.90
50907;DHT22;36882;27.680;85.304;2023-12-22T02:43:17;9.50;99.90
50907;DHT22;36882;27.680;85.304;2023-12-22T02:45:50;9.40;99.90
50907;DHT22;36882;27.680;85.304;2023-12-22T02:48:21;9.40;99.90
50907;DHT22;36882;27.680;85.304;2023-12-22T02:51:09;9.50;99.90
50907;DHT22;36882;27.680;85.304;2023-12-22T02:53:41;9.60;99.90
50907;DHT22;36882;27.680;85.304;2023-12-22T02:56:12;9.60;99.90
50907;DHT22;36882;27.680;85.304;2023-12-22T02:58:42;9.70;99.90
50907;DHT22;36882;27.680;85.304;2023-12-22T03:01:12;9.80;99.90
50907;DHT22;36882;27.680;85.304;2023-12-22T03:03:43;10.00;99.50
50907;DHT22;36882;27.680;85.304;2023-12-22T03:06:14;10.10;99.00
50907;DHT22;36882;27.680;85.304;2023-12-22T03:08:44;10.10;99.20
50907;DHT22;36882;27.680;85.304;2023-12-22T03:11:15;10.10;99.10
50907;DHT22;36882;27.680;85.304;2023-12-22T03:13:46;10.20;99.00
50907;DHT22;36882;27.680;85.304;2023-12-22T03:16:16;10.30;98.40
50907;DHT22;36882;27.680;85.304;2023-12-22T03:18:47;10.30;98.50
50907;DHT22;36882;27.680;85.304;2023-12-22T03:21:20;10.40;98.80
50907;DHT22;36882;27.680;85.304;2023-12-22T03:23:50;10.50;98.80
50907;DHT22;36882;27.680;85.304;2023-12-22T03:26:21;10.60;98.70
50907;DHT22;36882;27.680;85.304;2023-12-22T03:28:52;10.60;98.50
50907;DHT22;36882;27.680;85.304;2023-12-22T03:31:22;10.80;98.50
50907;DHT22;36882;27.680;85.304;2023-12-22T03:33:53;10.90;98.20
50907;DHT22;36882;27.680;85.304;2023-12-22T03:36:24;11.00;98.10
50907;DHT22;36882;27.680;85.304;2023-12-22T03:38:54;10.90;98.00
50907;DHT22;36882;27.680;85.304;2023-12-22T03:41:25;11.10;97.80
50907;DHT22;36882;27.680;85.304;2023-12-22T03:43:56;11.20;97.60
50907;DHT22;36882;27.680;85.304;2023-12-22T03:46:27;11.20;97.40
50907;DHT22;36882;27.680;85.304;2023-12-22T03:48:58;11.20;97.50
50907;DHT22;36882;27.680;85.304;2023-12-22T03:51:29;11.30;97.70
50907;DHT22;36882;27.680;85.304;2023-12-22T03:54:00;11.50;97.60
50907;DHT22;36882;27.680;85.304;2023-12-22T03:56:30;11.60;97.30
50907;DHT22;36882;27.680;85.304;2023-12-22T03:59:01;11.70;97.60
50907;DHT22;36882;27.680;85.304;2023-12-22T04:01:31;11.80;97.10
50907;DHT22;36882;27.680;85.304;2023-12-22T04:04:02;11.90;96.80
50907;DHT22;36882;27.680;85.304;2023-12-22T04:06:33;12.00;96.60
50907;DHT22;36882;27.680;85.304;2023-12-22T04:09:05;12.00;96.50
50907;DHT22;36882;27.680;85.304;2023-12-22T04:11:35;12.00;96.70
50907;DHT22;36882;27.680;85.304;2023-12-22T04:14:07;12.10;96.70
50907;DHT22;36882;27.680;85.304;2023-12-22T04:16:37;12.10;96.70
50907;DHT22;36882;27.680;85.304;2023-12-22T04:19:08;12.20;96.80
50907;DHT22;36882;27.680;85.304;2023-12-22T04:21:39;12.40;96.40
50907;DHT22;36882;27.680;85.304;2023-12-22T04:24:10;12.50;96.20
50907;DHT22;36882;27.680;85.304;2023-12-22T04:26:40;12.60;95.80
50907;DHT22;36882;27.680;85.304;2023-12-22T04:29:11;12.70;95.80
50907;DHT22;36882;27.680;85.304;2023-12-22T04:31:42;12.70;95.50
50907;DHT22;36882;27.680;85.304;2023-12-22T04:34:13;12.60;95.70
50907;DHT22;36882;27.680;85.304;2023-12-22T04:36:44;12.70;95.90
50907;DHT22;36882;27.680;85.304;2023-12-22T04:39:20;12.80;95.60
50907;DHT22;36882;27.680;85.304;2023-12-22T04:42:00;12.90;94.70
50907;DHT22;36882;27.680;85.304;2023-12-22T04:44:30;13.00;94.40
50907;DHT22;36882;27.680;85.304;2023-12-22T04:47:01;12.90;94.80
50907;DHT22;36882;27.680;85.304;2023-12-22T04:49:31;13.00;94.20
50907;DHT22;36882;27.680;85.304;2023-12-22T04:52:02;13.00;94.60
50907;DHT22;36882;27.680;85.304;2023-12-22T04:54:36;13.10;94.50
50907;DHT22;36882;27.680;85.304;2023-12-22T04:57:07;13.20;94.40
50907;DHT22;36882;27.680;85.304;2023-12-22T04:59:38;13.40;94.10
50907;DHT22;36882;27.680;85.304;2023-12-22T05:02:08;13.40;93.90
50907;DHT22;36882;27.680;85.304;2023-12-22T05:04:38;13.40;93.90
50907;DHT22;36882;27.680;85.304;2023-12-22T05:07:09;13.40;93.60
50907;DHT22;36882;27.680;85.304;2023-12-22T05:09:42;13.30;93.90
50907;DHT22;36882;27.680;85.304;2023-12-22T05:12:14;13.20;94.10
50907;DHT22;36882;27.680;85.304;2023-12-22T05:14:45;13.30;94.10
50907;DHT22;36882;27.680;85.304;2023-12-22T05:17:15;13.40;94.20
50907;DHT22;36882;27.680;85.304;2023-12-22T05:19:46;13.60;93.50
50907;DHT22;36882;27.680;85.304;2023-12-22T05:22:17;13.50;93.90
50907;DHT22;36882;27.680;85.304;2023-12-22T05:24:47;13.60;94.10
50907;DHT22;36882;27.680;85.304;2023-12-22T05:27:19;13.50;94.30
50907;DHT22;36882;27.680;85.304;2023-12-22T05:29:50;13.50;94.50
50907;DHT22;36882;27.680;85.304;2023-12-22T05:32:20;13.50;94.10
50907;DHT22;36882;27.680;85.304;2023-12-22T05:34:51;13.50;94.20
50907;DHT22;36882;27.680;85.304;2023-12-22T05:37:21;13.60;94.20
50907;DHT22;36882;27.680;85.304;2023-12-22T05:39:52;13.60;94.10
50907;DHT22;36882;27.680;85.304;2023-12-22T05:42:23;13.80;94.20
50907;DHT22;36882;27.680;85.304;2023-12-22T05:44:53;13.90;93.50
50907;DHT22;36882;27.680;85.304;2023-12-22T05:47:24;13.80;93.80
50907;DHT22;36882;27.680;85.304;2023-12-22T05:49:56;13.90;93.70
50907;DHT22;36882;27.680;85.304;2023-12-22T05:52:28;14.10;93.40
50907;DHT22;36882;27.680;85.304;2023-12-22T05:54:58;14.30;93.20
50907;DHT22;36882;27.680;85.304;2023-12-22T05:57:28;14.20;93.00
50907;DHT22;36882;27.680;85.304;2023-12-22T05:59:59;14.10;93.40
